Time;durP1;ratioP1;P1;durP2;ratioP2;P2;SDS_P1;SDS_P2;PMS_P1;PMS_P2;Temp;Humidity;BMP_temperature;BMP_pressure;BME280_temperature;BME280_humidity;BME280_pressure;Samples;Min_cycle;Max_cycle;Signal;HPM_P1;HPM_P2
2022/07/15 00:02:13;;;;;;;1.55;1.27;;;14.00;1.00;;;;;;5019097;28;20182;-86
2022/07/15 00:04:38;;;;;;;2.22;1.38;;;14.00;1.00;;;;;;5027352;28;20197;-85
2022/07/15 00:07:06;;;;;;;1.50;1.20;;;14.00;1.00;;;;;;5019300;28;20181;-87
2022/07/15 00:12:16;;;;;;;1.80;1.27;;;14.00;1.00;;;;;;5037019;28;20251;-86
2022/07/15 00:14:42;;;;;;;2.17;1.30;;;14.00;1.00;;;;;;5019163;28;20660;-86
2022/07/15 00:17:08;;;;;;;2.42;1.25;;;13.90;1.00;;;;;;5018803;28;20660;-86
2022/07/15 00:19:34;;;;;;;4.70;1.40;;;13.80;13.20;;;;;;5018637;28;20269;-86
2022/07/15 00:22:00;;;;;;;2.85;1.92;;;13.80;20.90;;;;;;5037744;28;20662;-85
2022/07/15 00:24:27;;;;;;;1.92;1.05;;;13.80;25.60;;;;;;5020467;28;20190;-85
2022/07/15 00:26:52;;;;;;;2.40;1.40;;;13.70;24.20;;;;;;5027572;28;20194;-86
2022/07/15 00:29:18;;;;;;;3.20;1.50;;;13.70;36.60;;;;;;5018906;28;20181;-85
2022/07/15 00:31:44;;;;;;;3.60;1.45;;;13.80;32.90;;;;;;5018363;28;20198;-86
2022/07/15 00:34:09;;;;;;;1.58;1.13;;;13.70;27.90;;;;;;5018877;28;20186;-86
2022/07/15 00:36:35;;;;;;;2.70;1.20;;;13.70;36.10;;;;;;5037364;28;20209;-85
2022/07/15 00:39:00;;;;;;;2.78;1.10;;;13.60;44.50;;;;;;5034211;28;20199;-87
2022/07/15 00:41:26;;;;;;;1.98;1.30;;;13.60;39.40;;;;;;5033101;28;20285;-86
2022/07/15 00:43:51;;;;;;;3.08;1.48;;;13.50;45.10;;;;;;5016687;28;20203;-85
2022/07/15 00:46:18;;;;;;;2.53;1.30;;;13.50;53.60;;;;;;5016966;28;20226;-86
2022/07/15 00:48:45;;;;;;;4.25;1.40;;;13.40;61.30;;;;;;5018309;28;20279;-86
2022/07/15 00:51:10;;;;;;;4.15;1.40;;;13.50;65.50;;;;;;5017640;28;20233;-86
2022/07/15 00:53:38;;;;;;;1.73;1.38;;;13.50;57.60;;;;;;5035972;28;20190;-85
2022/07/15 00:56:07;;;;;;;2.60;1.40;;;13.40;53.20;;;;;;5018186;28;20182;-86
2022/07/15 00:58:39;;;;;;;2.05;1.70;;;13.40;59.30;;;;;;5017514;28;20221;-85
2022/07/15 01:01:07;;;;;;;3.35;1.50;;;13.40;54.10;;;;;;5017278;28;21098;-85
2022/07/15 01:03:33;;;;;;;3.10;1.75;;;13.40;67.80;;;;;;5018230;28;20214;-85
2022/07/15 01:05:59;;;;;;;1.88;1.50;;;13.40;59.90;;;;;;5019077;28;20235;-86
2022/07/15 01:08:25;;;;;;;2.10;1.40;;;13.40;56.90;;;;;;5017248;28;20731;-84
2022/07/15 01:10:52;;;;;;;1.45;1.05;;;13.40;60.60;;;;;;5017851;28;20204;-86
2022/07/15 01:13:19;;;;;;;3.08;1.67;;;13.40;54.90;;;;;;5018395;28;20198;-85
2022/07/15 01:15:45;;;;;;;3.97;1.52;;;13.30;63.10;;;;;;5018867;28;20645;-85
2022/07/15 01:18:11;;;;;;;2.30;1.38;;;13.30;73.00;;;;;;5018219;28;20190;-87
2022/07/15 01:20:41;;;;;;;2.42;1.40;;;13.40;66.00;;;;;;5018644;28;20317;-85
2022/07/15 01:23:06;;;;;;;1.98;1.27;;;13.30;55.50;;;;;;5036154;28;20284;-86
2022/07/15 01:25:32;;;;;;;3.50;1.58;;;13.30;66.60;;;;;;5017444;28;20601;-89
2022/07/15 01:27:58;;;;;;;2.60;1.80;;;13.20;73.00;;;;;;5017896;28;20187;-89
2022/07/15 01:30:24;;;;;;;2.13;1.50;;;13.10;79.80;;;;;;5016744;28;20209;-89
2022/07/15 01:32:50;;;;;;;3.70;1.35;;;13.20;77.00;;;;;;5017916;28;20187;-88
2022/07/15 01:35:16;;;;;;;3.97;1.70;;;13.20;78.10;;;;;;5016132;28;20241;-85
2022/07/15 01:37:41;;;;;;;4.25;1.85;;;13.30;67.50;;;;;;5016755;28;20190;-86
2022/07/15 01:40:07;;;;;;;4.15;1.30;;;13.20;70.50;;;;;;5017049;28;20213;-86
2022/07/15 01:42:33;;;;;;;2.67;1.35;;;13.10;74.00;;;;;;5016746;28;20186;-86
2022/07/15 01:44:59;;;;;;;2.17;1.38;;;13.10;79.10;;;;;;5017934;28;20189;-86
2022/07/15 01:47:25;;;;;;;3.00;1.30;;;13.20;83.20;;;;;;5017243;28;20175;-87
2022/07/15 01:49:50;;;;;;;3.00;1.38;;;13.20;80.00;;;;;;5017386;28;20210;-88
2022/07/15 01:52:17;;;;;;;2.72;1.30;;;13.10;80.90;;;;;;5017444;28;20201;-86
2022/07/15 01:54:43;;;;;;;4.63;1.60;;;13.10;85.90;;;;;;5017511;28;20264;-85
2022/07/15 01:57:08;;;;;;;3.63;1.40;;;13.20;65.40;;;;;;5017661;28;20568;-86
2022/07/15 01:59:34;;;;;;;2.58;1.60;;;13.20;70.30;;;;;;5016764;28;20282;-87
2022/07/15 02:02:00;;;;;;;2.63;1.30;;;13.20;59.40;;;;;;5036080;28;20179;-88
2022/07/15 02:04:26;;;;;;;3.20;1.55;;;13.10;71.40;;;;;;5016582;28;20182;-86
2022/07/15 02:06:52;;;;;;;3.40;1.50;;;13.00;72.00;;;;;;5017020;28;20314;-86
2022/07/15 02:09:18;;;;;;;3.15;1.60;;;13.00;71.10;;;;;;5020112;28;20822;-87
2022/07/15 02:11:44;;;;;;;3.45;1.67;;;13.00;70.30;;;;;;5022515;28;20194;-88
2022/07/15 02:14:10;;;;;;;2.53;1.30;;;12.90;80.10;;;;;;5036665;28;20229;-86
2022/07/15 02:16:35;;;;;;;4.97;1.60;;;12.90;79.10;;;;;;5021590;28;20190;-86
2022/07/15 02:19:01;;;;;;;2.25;1.48;;;12.90;80.30;;;;;;5020669;28;20202;-86
2022/07/15 02:21:27;;;;;;;4.80;1.30;;;13.00;83.00;;;;;;5019683;28;20209;-86
2022/07/15 02:23:54;;;;;;;2.95;1.42;;;13.00;66.50;;;;;;5019115;28;20182;-86
2022/07/15 02:26:20;;;;;;;2.13;1.23;;;13.00;69.50;;;;;;5019892;28;20659;-87
2022/07/15 02:28:46;;;;;;;4.60;1.60;;;13.00;68.80;;;;;;5021092;28;20603;-87
2022/07/15 02:31:12;;;;;;;2.38;1.33;;;13.10;55.50;;;;;;5037999;28;21029;-86
2022/07/15 02:33:39;;;;;;;4.50;1.90;;;13.10;51.50;;;;;;5020786;28;20194;-86
2022/07/15 02:36:05;;;;;;;3.03;1.40;;;13.10;59.50;;;;;;5028661;28;20186;-86
2022/07/15 02:38:30;;;;;;;3.65;1.70;;;13.10;53.70;;;;;;5020197;28;20775;-85
2022/07/15 02:40:56;;;;;;;3.05;1.60;;;13.00;55.40;;;;;;5020455;28;20293;-87
2022/07/15 02:43:22;;;;;;;3.22;1.35;;;13.10;48.30;;;;;;5021388;28;20178;-86
2022/07/15 02:45:48;;;;;;;3.42;1.52;;;13.10;52.40;;;;;;5020950;28;20192;-86
2022/07/15 02:48:15;;;;;;;3.30;1.50;;;13.10;56.00;;;;;;5021312;28;20278;-86
2022/07/15 02:50:41;;;;;;;4.60;1.70;;;13.10;59.50;;;;;;5019320;28;20265;-86
2022/07/15 02:53:06;;;;;;;4.28;1.65;;;13.00;59.80;;;;;;5020333;28;20215;-86
2022/07/15 02:55:32;;;;;;;1.90;1.25;;;13.00;70.30;;;;;;5038826;28;20222;-86
2022/07/15 02:57:58;;;;;;;4.03;1.55;;;13.00;79.10;;;;;;5019762;28;20182;-86
2022/07/15 03:00:23;;;;;;;3.83;1.30;;;13.00;87.40;;;;;;5020006;28;20211;-86
2022/07/15 03:02:49;;;;;;;2.47;1.35;;;12.90;90.10;;;;;;5019649;28;20178;-86
2022/07/15 03:05:16;;;;;;;3.42;1.52;;;13.00;92.10;;;;;;5021186;28;20190;-86
2022/07/15 03:07:43;;;;;;;3.30;1.45;;;13.10;91.00;;;;;;5019554;28;20191;-86
2022/07/15 03:10:10;;;;;;;6.80;1.60;;;13.20;80.50;;;;;;5035308;28;20207;-86
2022/07/15 03:12:36;;;;;;;3.95;1.58;;;13.10;81.10;;;;;;5027191;28;20667;-86
2022/07/15 03:15:03;;;;;;;2.88;1.55;;;13.30;83.30;;;;;;5033828;28;20274;-86
2022/07/15 03:17:28;;;;;;;3.38;1.52;;;13.40;57.90;;;;;;5014054;28;20251;-86
2022/07/15 03:19:57;;;;;;;3.03;1.70;;;13.40;63.80;;;;;;5020007;28;20879;-86
2022/07/15 03:22:27;;;;;;;2.97;1.48;;;13.30;67.30;;;;;;5019718;28;20644;-86
2022/07/15 03:24:53;;;;;;;5.57;1.73;;;13.30;67.70;;;;;;5019975;28;20211;-86
2022/07/15 03:27:19;;;;;;;2.20;1.50;;;13.20;77.60;;;;;;5020016;28;21007;-86
2022/07/15 03:29:44;;;;;;;2.90;1.52;;;13.20;83.30;;;;;;5019014;28;20229;-86
2022/07/15 03:32:11;;;;;;;4.00;1.50;;;13.20;77.60;;;;;;5018777;28;20241;-86
2022/07/15 03:34:37;;;;;;;6.20;2.13;;;13.10;88.70;;;;;;5018343;28;20293;-86
2022/07/15 03:37:03;;;;;;;5.75;2.30;;;13.10;89.50;;;;;;5020434;28;20266;-86
2022/07/15 03:39:28;;;;;;;2.45;1.60;;;13.00;93.80;;;;;;5019213;28;21356;-86
2022/07/15 03:41:54;;;;;;;4.85;2.40;;;13.00;98.00;;;;;;5037339;28;20585;-86
2022/07/15 03:44:20;;;;;;;5.70;1.70;;;13.00;96.20;;;;;;5019784;28;20190;-86
2022/07/15 03:46:46;;;;;;;3.83;2.10;;;13.00;94.80;;;;;;5019390;28;20190;-86
2022/07/15 03:49:15;;;;;;;3.53;1.73;;;13.00;91.70;;;;;;5018178;28;20988;-86
2022/07/15 03:51:42;;;;;;;4.68;2.38;;;13.00;96.00;;;;;;5037601;28;21180;-86
2022/07/15 03:54:08;;;;;;;2.80;1.83;;;13.00;96.80;;;;;;5019040;28;20789;-86
2022/07/15 03:56:34;;;;;;;2.85;1.70;;;13.00;96.80;;;;;;5019337;28;20190;-87
2022/07/15 03:58:59;;;;;;;4.05;2.20;;;13.00;98.50;;;;;;5037515;28;20224;-86
2022/07/15 04:01:25;;;;;;;3.40;1.90;;;13.00;96.00;;;;;;5018685;28;20203;-86
2022/07/15 04:03:52;;;;;;;3.70;1.70;;;12.80;98.90;;;;;;5018772;28;20190;-85
2022/07/15 04:06:19;;;;;;;4.45;1.90;;;12.80;99.90;;;;;;5035967;28;20186;-86
2022/07/15 04:08:45;;;;;;;3.97;2.08;;;13.00;99.90;;;;;;5033986;28;20183;-86
2022/07/15 04:11:11;;;;;;;4.18;1.63;;;13.00;99.20;;;;;;5036242;28;20221;-86
2022/07/15 04:13:37;;;;;;;3.05;1.63;;;13.00;99.90;;;;;;5036359;28;20190;-86
2022/07/15 04:16:04;;;;;;;4.22;1.70;;;13.00;99.90;;;;;;5018995;28;20193;-86
2022/07/15 04:18:30;;;;;;;4.35;1.80;;;13.10;97.30;;;;;;5017941;28;20182;-87
2022/07/15 04:20:55;;;;;;;3.40;1.80;;;13.10;92.60;;;;;;5018866;28;20205;-87
2022/07/15 04:23:21;;;;;;;4.80;2.13;;;13.10;93.10;;;;;;5018272;28;20244;-85
2022/07/15 04:25:48;;;;;;;3.28;1.92;;;13.20;90.60;;;;;;5019552;28;20897;-86
2022/07/15 04:28:13;;;;;;;3.08;1.48;;;13.10;93.60;;;;;;5018014;28;20183;-86
2022/07/15 04:30:39;;;;;;;6.13;2.00;;;13.20;90.50;;;;;;5017011;28;20222;-87
2022/07/15 04:33:05;;;;;;;4.57;1.55;;;13.30;81.50;;;;;;5035916;28;20187;-86
2022/07/15 04:35:30;;;;;;;6.15;2.20;;;13.30;83.80;;;;;;5016722;28;20197;-86
2022/07/15 04:37:56;;;;;;;4.28;1.88;;;13.30;81.60;;;;;;5017913;28;20216;-86
2022/07/15 04:40:21;;;;;;;2.90;1.30;;;13.40;75.10;;;;;;5018441;28;20214;-87
2022/07/15 04:42:47;;;;;;;3.45;1.50;;;13.40;74.70;;;;;;5018510;28;20277;-87
2022/07/15 04:45:12;;;;;;;5.63;1.60;;;13.50;60.40;;;;;;5037480;28;20178;-85
2022/07/15 04:47:38;;;;;;;2.60;1.70;;;13.50;63.40;;;;;;5018101;28;20204;-86
2022/07/15 04:52:48;;;;;;;4.82;1.88;;;13.70;65.00;;;;;;5035916;28;20204;-89
2022/07/15 04:55:15;;;;;;;3.45;1.70;;;13.80;45.20;;;;;;5017730;28;21098;-89
2022/07/15 04:57:41;;;;;;;4.25;1.50;;;14.00;30.70;;;;;;5024830;28;20210;-87
2022/07/15 05:00:09;;;;;;;2.83;1.42;;;14.10;23.00;;;;;;5017089;28;20219;-86
2022/07/15 05:02:35;;;;;;;4.40;1.40;;;14.20;18.30;;;;;;5036523;28;20190;-87
2022/07/15 05:05:00;;;;;;;3.38;1.27;;;14.30;9.50;;;;;;5026598;28;20170;-88
2022/07/15 05:07:27;;;;;;;3.92;1.50;;;14.40;16.00;;;;;;5017842;28;20179;-87
2022/07/15 05:09:53;;;;;;;3.72;1.65;;;14.60;1.00;;;;;;5015272;28;20588;-86
2022/07/15 05:12:18;;;;;;;5.38;1.27;;;14.60;1.00;;;;;;5035148;28;20194;-87
2022/07/15 05:14:44;;;;;;;3.15;1.27;;;14.70;1.00;;;;;;5017156;28;20260;-85
2022/07/15 05:17:10;;;;;;;3.92;1.30;;;14.90;1.00;;;;;;5017676;28;20682;-84
2022/07/15 05:19:36;;;;;;;2.63;0.95;;;15.10;1.00;;;;;;5035461;28;20220;-86
2022/07/15 05:22:03;;;;;;;3.15;1.00;;;15.20;1.00;;;;;;5035070;28;20178;-86
2022/07/15 05:24:28;;;;;;;2.75;1.00;;;15.40;1.00;;;;;;5035030;28;20217;-85
2022/07/15 05:26:54;;;;;;;3.45;0.90;;;15.40;1.00;;;;;;5016463;28;20248;-86
2022/07/15 05:29:23;;;;;;;4.95;1.30;;;15.30;1.00;;;;;;5018231;28;20186;-85
2022/07/15 05:31:49;;;;;;;4.13;1.20;;;15.40;1.00;;;;;;5018550;28;20202;-85
2022/07/15 05:34:14;;;;;;;6.50;1.17;;;15.50;1.00;;;;;;5017036;28;20190;-85
2022/07/15 05:36:40;;;;;;;4.25;1.25;;;15.50;1.00;;;;;;5016078;28;20284;-84
2022/07/15 05:39:06;;;;;;;2.28;0.95;;;15.40;1.00;;;;;;5016874;28;21136;-86
2022/07/15 05:41:32;;;;;;;3.35;1.13;;;15.50;1.00;;;;;;5017490;28;20189;-86
2022/07/15 05:43:59;;;;;;;5.40;1.75;;;15.50;1.00;;;;;;5021140;28;20182;-86
2022/07/15 05:46:25;;;;;;;3.88;1.15;;;15.50;1.00;;;;;;5039554;28;20194;-85
2022/07/15 05:48:51;;;;;;;5.20;1.30;;;15.40;1.00;;;;;;5020997;28;20182;-85
2022/07/15 05:51:17;;;;;;;4.68;1.17;;;15.50;1.00;;;;;;5021773;28;20252;-85
2022/07/15 05:53:43;;;;;;;5.30;1.17;;;15.50;1.00;;;;;;5019987;28;20191;-84
2022/07/15 05:56:09;;;;;;;2.30;1.20;;;15.60;1.00;;;;;;5020949;28;20648;-85
2022/07/15 05:58:34;;;;;;;3.92;1.30;;;15.70;1.00;;;;;;5019784;28;20187;-85
2022/07/15 06:01:00;;;;;;;5.22;1.10;;;15.80;1.00;;;;;;5021922;28;20562;-86
2022/07/15 06:03:26;;;;;;;4.95;1.02;;;15.90;1.00;;;;;;5020489;28;20227;-85
2022/07/15 06:05:52;;;;;;;4.68;1.13;;;15.90;1.00;;;;;;5020964;28;20190;-85
2022/07/15 06:08:17;;;;;;;4.18;1.20;;;15.90;1.00;;;;;;5020735;28;20189;-85
2022/07/15 06:10:43;;;;;;;3.08;0.85;;;15.90;99.90;;;;;;5021887;28;20273;-85
2022/07/15 06:13:09;;;;;;;4.63;0.82;;;16.00;1.00;;;;;;5020670;28;20703;-84
2022/07/15 06:15:36;;;;;;;4.10;1.10;;;16.00;1.00;;;;;;5021055;28;20190;-85
2022/07/15 06:18:02;;;;;;;5.50;0.90;;;16.20;99.90;;;;;;5021090;28;20175;-84
2022/07/15 06:20:28;;;;;;;2.85;0.90;;;16.20;99.90;;;;;;5020274;28;20225;-82
2022/07/15 06:22:53;;;;;;;4.20;1.00;;;16.30;99.90;;;;;;5018349;28;20175;-84
2022/07/15 06:25:20;;;;;;;2.70;0.80;;;16.40;99.90;;;;;;5038008;28;20183;-83
2022/07/15 06:27:46;;;;;;;2.78;1.20;;;16.40;99.90;;;;;;5036910;28;20660;-84
2022/07/15 06:30:13;;;;;;;4.35;1.08;;;16.40;99.90;;;;;;5015278;28;20226;-82
2022/07/15 06:32:38;;;;;;;4.28;1.08;;;16.40;99.90;;;;;;5018725;28;20186;-82
2022/07/15 06:35:04;;;;;;;2.85;1.00;;;16.20;99.90;;;;;;5019022;28;20629;-85
2022/07/15 06:37:30;;;;;;;4.22;0.90;;;16.20;99.90;;;;;;5020479;28;20187;-84
2022/07/15 06:39:56;;;;;;;2.47;0.85;;;16.10;99.90;;;;;;5026420;28;20211;-84
2022/07/15 06:42:25;;;;;;;3.60;1.10;;;16.20;99.90;;;;;;5010053;28;20376;-82
2022/07/15 06:44:50;;;;;;;5.65;0.93;;;16.20;99.90;;;;;;5015496;28;20668;-85
2022/07/15 06:47:16;;;;;;;2.88;0.88;;;16.30;99.90;;;;;;5028769;28;20183;-82
2022/07/15 06:49:42;;;;;;;3.35;1.20;;;16.40;23.20;;;;;;5012345;28;20213;-83
2022/07/15 06:52:08;;;;;;;3.22;1.15;;;16.40;83.10;;;;;;5019933;28;20591;-82
2022/07/15 06:54:33;;;;;;;3.95;1.05;;;16.50;65.90;;;;;;5017699;28;20734;-83
2022/07/15 06:56:59;;;;;;;4.28;1.40;;;16.60;1.00;;;;;;5035787;28;20191;-83
2022/07/15 06:59:25;;;;;;;4.18;1.23;;;16.60;1.00;;;;;;5028641;28;20463;-83
2022/07/15 07:01:52;;;;;;;3.22;1.02;;;16.60;1.00;;;;;;5016065;28;20185;-84
2022/07/15 07:04:17;;;;;;;2.60;1.00;;;16.70;1.00;;;;;;5032333;28;20182;-84
2022/07/15 07:06:43;;;;;;;3.05;1.02;;;16.80;99.90;;;;;;5012247;28;20216;-83
2022/07/15 07:09:09;;;;;;;3.42;1.27;;;16.70;99.90;;;;;;5031178;28;20191;-83
2022/07/15 07:11:35;;;;;;;4.88;1.10;;;16.60;1.00;;;;;;5013502;28;20193;-84
2022/07/15 07:14:00;;;;;;;5.35;1.20;;;16.60;1.00;;;;;;5011747;28;20186;-84
2022/07/15 07:16:26;;;;;;;3.72;1.00;;;16.60;1.00;;;;;;5033767;28;20566;-83
2022/07/15 07:18:52;;;;;;;2.78;0.90;;;16.60;1.00;;;;;;5019219;28;20209;-85
2022/07/15 07:21:19;;;;;;;3.55;0.90;;;16.70;1.00;;;;;;5009104;28;20286;-85
2022/07/15 07:23:45;;;;;;;2.78;0.80;;;16.90;1.00;;;;;;5013815;28;20233;-84
2022/07/15 07:26:11;;;;;;;3.63;1.23;;;16.80;1.00;;;;;;5018001;28;20270;-84
2022/07/15 07:28:40;;;;;;;5.15;0.88;;;16.80;99.90;;;;;;5022925;28;20182;-84
2022/07/15 07:31:09;;;;;;;6.78;1.77;;;16.90;99.90;;;;;;5010048;28;20207;-85
2022/07/15 07:33:34;;;;;;;2.33;0.60;;;17.10;99.90;;;;;;5012437;28;20183;-89
2022/07/15 07:36:00;;;;;;;4.05;1.00;;;17.30;99.90;;;;;;5014650;28;20183;-86
2022/07/15 07:38:26;;;;;;;3.50;0.90;;;17.40;1.00;;;;;;5017534;28;20415;-85
2022/07/15 07:40:52;;;;;;;4.63;1.17;;;17.40;1.00;;;;;;5018518;28;20194;-85
2022/07/15 07:43:18;;;;;;;2.92;0.88;;;17.60;99.90;;;;;;5037592;28;20185;-83
2022/07/15 07:45:45;;;;;;;2.42;0.80;;;17.60;99.90;;;;;;5038480;28;20189;-84
2022/07/15 07:48:11;;;;;;;2.45;1.15;;;17.70;1.00;;;;;;5035375;28;20228;-85
2022/07/15 07:50:37;;;;;;;2.15;0.75;;;17.80;1.00;;;;;;5015784;28;20209;-85
2022/07/15 07:53:03;;;;;;;2.58;0.80;;;18.00;99.90;;;;;;5008888;28;20547;-84
2022/07/15 07:55:28;;;;;;;1.65;0.93;;;17.80;99.90;;;;;;5013530;28;20281;-86
2022/07/15 07:57:56;;;;;;;4.13;0.60;;;17.90;99.90;;;;;;5028798;28;20198;-83
2022/07/15 08:00:23;;;;;;;1.60;0.65;;;18.00;99.90;;;;;;5014778;28;20219;-86
2022/07/15 08:02:49;;;;;;;7.75;0.77;;;18.20;1.00;;;;;;5028483;28;20183;-86
2022/07/15 08:05:15;;;;;;;2.25;0.68;;;18.40;1.00;;;;;;5011001;28;20186;-85
2022/07/15 08:07:42;;;;;;;2.80;0.60;;;18.70;99.90;;;;;;5011273;28;20504;-83
2022/07/15 08:10:09;;;;;;;2.67;0.70;;;19.10;1.00;;;;;;5027240;28;20218;-85
2022/07/15 08:12:37;;;;;;;1.35;0.80;;;19.10;99.90;;;;;;5016338;28;20187;-86
2022/07/15 08:15:04;;;;;;;4.10;0.77;;;18.50;1.00;;;;;;5021081;28;20277;-84
2022/07/15 08:17:30;;;;;;;2.45;0.90;;;18.40;1.00;;;;;;5013172;28;20194;-85
2022/07/15 08:19:56;;;;;;;1.73;0.52;;;18.20;1.00;;;;;;5013752;28;20296;-85
2022/07/15 08:22:22;;;;;;;1.95;0.57;;;18.10;99.90;;;;;;5017392;28;20653;-84
2022/07/15 08:24:49;;;;;;;3.15;0.77;;;18.10;1.00;;;;;;5010387;28;20187;-85
2022/07/15 08:27:15;;;;;;;3.05;0.63;;;18.10;99.90;;;;;;5012484;28;20210;-84
2022/07/15 08:29:41;;;;;;;2.38;0.73;;;17.70;99.90;;;;;;5015573;28;20213;-84
2022/07/15 08:32:06;;;;;;;2.63;0.60;;;17.60;99.90;;;;;;5009307;28;20203;-84
2022/07/15 08:34:32;;;;;;;2.35;0.80;;;17.50;1.00;;;;;;5013820;28;20201;-85
2022/07/15 08:36:58;;;;;;;2.85;0.60;;;17.30;1.00;;;;;;5009751;28;20183;-86
2022/07/15 08:39:23;;;;;;;2.00;0.77;;;17.20;1.00;;;;;;5014957;28;20228;-85
2022/07/15 08:41:51;;;;;;;2.13;0.63;;;17.30;1.00;;;;;;5017291;28;20273;-84
2022/07/15 08:44:16;;;;;;;1.92;0.52;;;17.40;1.00;;;;;;5032947;28;20290;-87
2022/07/15 08:46:45;;;;;;;3.72;0.70;;;17.50;1.00;;;;;;5016302;28;20175;-85
2022/07/15 08:49:16;;;;;;;2.50;0.65;;;17.80;99.90;;;;;;5013402;28;20274;-86
2022/07/15 08:51:44;;;;;;;1.20;0.47;;;18.10;99.90;;;;;;5015497;28;20182;-85
2022/07/15 08:54:14;;;;;;;2.47;0.80;;;18.50;99.90;;;;;;5023103;28;20656;-85
2022/07/15 08:56:39;;;;;;;1.55;0.50;;;18.70;26.10;;;;;;5011041;28;20281;-85
2022/07/15 08:59:07;;;;;;;2.50;0.57;;;18.90;1.00;;;;;;5015158;28;20293;-85
2022/07/15 09:01:34;;;;;;;2.70;0.60;;;18.90;1.00;;;;;;5015103;28;20197;-85
2022/07/15 09:04:00;;;;;;;1.83;0.70;;;18.90;99.90;;;;;;5011765;28;20530;-86
2022/07/15 09:06:42;;;;;;;4.10;0.60;;;18.70;99.90;;;;;;5011203;28;20865;-84
2022/07/15 09:09:36;;;;;;;1.60;0.38;;;18.50;99.90;;;;;;5018479;28;20780;-85
2022/07/15 09:12:11;;;;;;;1.80;0.52;;;18.30;99.90;;;;;;5034281;28;20179;-85
2022/07/15 09:14:38;;;;;;;2.00;0.55;;;18.30;99.90;;;;;;5015118;28;20671;-84
2022/07/15 09:17:09;;;;;;;2.92;0.88;;;18.20;1.00;;;;;;5022739;28;20190;-84
2022/07/15 09:20:04;;;;;;;1.08;0.40;;;18.10;1.00;;;;;;5011973;28;20225;-86
2022/07/15 09:22:51;;;;;;;3.13;0.88;;;18.30;99.90;;;;;;5032139;28;20171;-85
2022/07/15 09:25:17;;;;;;;1.35;0.50;;;18.30;1.00;;;;;;5031353;28;20824;-86
2022/07/15 09:27:44;;;;;;;2.97;0.60;;;18.20;1.00;;;;;;5009968;28;20218;-87
2022/07/15 09:36:13;;;;;;;1.98;0.73;;;18.00;1.00;;;;;;5033602;28;20193;-86
2022/07/15 09:38:49;;;;;;;1.35;0.63;;;18.10;1.00;;;;;;5007454;28;20186;-83
2022/07/15 09:41:28;;;;;;;1.88;0.85;;;18.10;1.00;;;;;;5015849;28;20233;-84
2022/07/15 09:44:08;;;;;;;1.45;0.50;;;18.20;1.00;;;;;;5032999;28;20178;-86
2022/07/15 09:46:52;;;;;;;0.90;0.40;;;18.30;1.00;;;;;;5021962;28;20183;-83
2022/07/15 09:49:27;;;;;;;1.65;0.45;;;18.60;99.90;;;;;;5005848;28;20178;-84
2022/07/15 09:51:55;;;;;;;3.70;0.40;;;18.70;99.90;;;;;;5013870;28;20277;-84
2022/07/15 09:54:28;;;;;;;0.85;0.40;;;18.60;99.90;;;;;;5021869;28;20327;-84
2022/07/15 09:56:54;;;;;;;1.92;0.40;;;18.70;99.90;;;;;;5016762;28;20676;-84
2022/07/15 09:59:19;;;;;;;1.52;0.40;;;18.70;99.90;;;;;;5007733;28;20238;-85
2022/07/15 10:01:49;;;;;;;2.47;0.85;;;18.80;99.90;;;;;;5007276;28;20191;-84
2022/07/15 10:04:16;;;;;;;2.28;0.63;;;18.60;99.90;;;;;;5011685;28;20183;-84
2022/07/15 10:06:43;;;;;;;0.95;0.47;;;18.50;99.90;;;;;;5029843;28;20182;-84
2022/07/15 10:09:09;;;;;;;2.35;0.55;;;18.40;99.90;;;;;;5012401;28;20206;-84
2022/07/15 10:11:41;;;;;;;1.60;0.60;;;18.30;1.00;;;;;;5011025;28;20656;-84
2022/07/15 10:14:26;;;;;;;2.55;0.50;;;18.40;99.90;;;;;;5028048;28;20221;-86
2022/07/15 10:17:12;;;;;;;2.00;0.63;;;18.70;99.90;;;;;;5012532;28;20187;-86
2022/07/15 10:20:14;;;;;;;2.17;0.45;;;18.80;99.90;;;;;;4970979;28;20404;-83
2022/07/15 10:22:52;;;;;;;1.13;0.40;;;18.90;99.90;;;;;;5014881;28;20277;-86
2022/07/15 10:25:39;;;;;;;0.98;0.50;;;19.00;99.90;;;;;;5027071;28;20245;-84
2022/07/15 10:28:09;;;;;;;0.88;0.40;;;18.90;99.90;;;;;;5010898;28;20545;-85
2022/07/15 10:30:37;;;;;;;1.15;0.70;;;18.70;99.90;;;;;;5015867;28;20395;-84
2022/07/15 10:33:10;;;;;;;0.82;0.30;;;18.70;99.90;;;;;;5036972;28;20192;-83
2022/07/15 10:35:39;;;;;;;1.30;0.38;;;18.60;99.90;;;;;;5028830;28;20210;-84
2022/07/15 10:38:28;;;;;;;0.70;0.50;;;18.80;99.90;;;;;;5019839;28;20182;-84
2022/07/15 10:41:04;;;;;;;1.20;0.40;;;19.00;99.90;;;;;;5019181;28;20317;-84
2022/07/15 10:43:49;;;;;;;0.93;0.40;;;19.00;57.90;;;;;;5020229;28;20174;-84
2022/07/15 10:46:20;;;;;;;1.75;0.40;;;19.10;11.10;;;;;;5027635;28;21217;-86
2022/07/15 10:48:57;;;;;;;1.27;0.40;;;18.90;1.00;;;;;;5014657;28;20187;-84
2022/07/15 10:51:35;;;;;;;1.25;0.43;;;19.00;70.10;;;;;;5006646;28;20202;-85
2022/07/15 10:54:02;;;;;;;0.55;0.40;;;19.10;95.80;;;;;;5014666;28;20190;-85
2022/07/15 10:56:34;;;;;;;1.42;0.50;;;19.30;95.40;;;;;;5036485;28;20178;-85
2022/07/15 10:59:19;;;;;;;1.30;0.40;;;19.40;31.30;;;;;;5018685;28;20202;-85
2022/07/15 11:01:48;;;;;;;1.15;0.40;;;20.00;11.80;;;;;;5037883;28;20173;-84
2022/07/15 11:04:17;;;;;;;1.02;0.55;;;20.10;1.00;;;;;;5036085;28;20652;-86
2022/07/15 11:07:01;;;;;;;1.17;0.50;;;20.10;1.00;;;;;;5038060;28;20183;-85
2022/07/15 11:09:53;;;;;;;1.05;0.40;;;20.10;1.00;;;;;;5019123;28;20211;-83
2022/07/15 11:12:31;;;;;;;1.13;0.40;;;20.00;1.00;;;;;;5018337;28;20175;-83
2022/07/15 11:14:59;;;;;;;1.23;0.50;;;19.90;1.00;;;;;;5034881;28;20175;-83
2022/07/15 11:17:29;;;;;;;1.13;0.40;;;19.70;1.00;;;;;;5016848;28;20175;-82
2022/07/15 11:19:57;;;;;;;3.67;0.68;;;19.60;1.00;;;;;;5018461;28;20271;-83
2022/07/15 11:22:26;;;;;;;3.97;0.68;;;19.40;1.00;;;;;;5036441;28;20636;-83
2022/07/15 11:24:53;;;;;;;1.40;0.47;;;19.50;11.80;;;;;;5019386;28;20182;-83
2022/07/15 11:27:20;;;;;;;1.80;0.43;;;19.60;1.00;;;;;;5019655;28;20675;-83
2022/07/15 11:29:51;;;;;;;1.85;0.47;;;19.70;1.00;;;;;;5019658;28;20806;-82
2022/07/15 11:32:19;;;;;;;1.13;0.40;;;19.50;1.00;;;;;;5028229;28;20244;-83
2022/07/15 11:34:48;;;;;;;2.30;0.75;;;19.60;1.00;;;;;;5037224;28;20179;-84
2022/07/15 11:37:18;;;;;;;1.65;0.40;;;19.60;1.00;;;;;;5020213;28;20237;-85
2022/07/15 11:39:49;;;;;;;2.65;0.40;;;19.70;1.00;;;;;;5038845;28;20557;-85
2022/07/15 11:45:09;;;;;;;1.08;0.40;;;19.60;1.00;;;;;;5042559;28;20278;-87
2022/07/15 11:47:35;;;;;;;1.13;0.40;;;19.90;1.00;;;;;;5022215;28;20184;-86
2022/07/15 11:50:04;;;;;;;1.00;0.40;;;20.00;1.00;;;;;;5021656;28;20285;-84
2022/07/15 11:52:30;;;;;;;0.90;0.38;;;20.20;1.00;;;;;;5022325;28;20262;-85
2022/07/15 11:54:56;;;;;;;2.05;0.40;;;20.40;1.00;;;;;;5021835;28;20309;-87
2022/07/15 11:57:22;;;;;;;1.98;0.30;;;20.30;1.00;;;;;;5039455;28;20205;-86
2022/07/15 11:59:53;;;;;;;2.17;0.50;;;20.00;1.00;;;;;;5020395;28;20652;-85
2022/07/15 12:02:19;;;;;;;2.10;0.70;;;20.10;1.00;;;;;;5041220;28;20178;-87
2022/07/15 12:04:44;;;;;;;1.05;0.50;;;20.20;1.00;;;;;;5020229;28;20632;-86
2022/07/15 12:07:10;;;;;;;0.80;0.50;;;20.20;1.00;;;;;;5039089;28;20182;-86
2022/07/15 12:09:43;;;;;;;1.42;0.50;;;20.10;1.00;;;;;;4994964;28;20245;-83
2022/07/15 12:12:08;;;;;;;2.10;0.38;;;20.00;1.00;;;;;;5027115;28;20183;-84
2022/07/15 12:14:35;;;;;;;2.00;0.40;;;20.00;1.00;;;;;;5031653;28;20652;-84
2022/07/15 12:17:01;;;;;;;1.80;0.40;;;19.90;1.00;;;;;;5013834;28;20185;-86
2022/07/15 12:19:29;;;;;;;1.50;0.77;;;20.00;1.00;;;;;;5010677;28;20218;-83
2022/07/15 12:22:06;;;;;;;0.95;0.57;;;19.90;1.00;;;;;;5016042;28;20191;-85
2022/07/15 12:24:50;;;;;;;1.23;0.43;;;20.00;1.00;;;;;;5013574;28;20546;-86
2022/07/15 12:27:15;;;;;;;1.25;0.50;;;20.30;1.00;;;;;;5011740;28;20660;-84
2022/07/15 12:29:42;;;;;;;0.68;0.50;;;20.40;1.00;;;;;;5031042;28;20214;-85
2022/07/15 12:32:10;;;;;;;2.03;0.50;;;20.40;1.00;;;;;;5034105;28;20214;-84
2022/07/15 12:34:55;;;;;;;0.55;0.43;;;20.20;1.00;;;;;;5015947;28;20189;-84
2022/07/15 12:37:41;;;;;;;1.58;0.50;;;20.20;1.00;;;;;;5014445;28;20265;-84
2022/07/15 12:40:12;;;;;;;2.10;0.55;;;20.30;1.00;;;;;;5004036;28;20735;-83
2022/07/15 12:42:47;;;;;;;1.20;0.50;;;20.40;1.00;;;;;;5017051;28;20186;-84
2022/07/15 12:45:17;;;;;;;0.95;0.60;;;20.60;1.00;;;;;;5020104;28;20186;-84
2022/07/15 12:48:04;;;;;;;1.08;0.45;;;20.50;1.00;;;;;;5031907;28;20671;-86
2022/07/15 12:50:51;;;;;;;1.38;0.40;;;20.50;1.00;;;;;;5013278;28;20783;-85
2022/07/15 12:53:19;;;;;;;2.10;0.50;;;20.90;1.00;;;;;;5030731;28;20223;-85
2022/07/15 12:55:47;;;;;;;1.20;0.63;;;21.30;1.00;;;;;;5031758;28;20714;-86
2022/07/15 12:58:16;;;;;;;1.90;0.50;;;21.10;1.00;;;;;;5009735;28;20195;-84
2022/07/15 13:00:43;;;;;;;1.92;0.40;;;21.00;1.00;;;;;;5011944;28;20214;-84
2022/07/15 13:03:17;;;;;;;0.77;0.50;;;20.80;1.00;;;;;;5011084;28;20190;-83
2022/07/15 13:05:47;;;;;;;1.80;0.40;;;20.90;1.00;;;;;;5030298;28;20727;-85
2022/07/15 13:08:18;;;;;;;1.40;0.40;;;20.80;1.00;;;;;;5035275;28;20222;-87
2022/07/15 13:10:47;;;;;;;2.67;0.50;;;20.80;1.00;;;;;;5017786;28;20642;-86